WMT8ZS LIRN-LRCV
Flight info
| Callsign | WMT8ZS |
|---|---|
| Flight time | 1h 26m |
| Altitude | 35000 |
| Route | BEDPI DCT MOLUX DCT RILIM DCT NETKO DCT VEBAR DCT VAL DCT VELIP DCT PADGU DCT OVDOT T139 TITEK |
| Aircraft | A321/M-SDE3FGHIRWY/LB1 |
Departure
| Time | 2026-04-14 14:07 |
|---|---|
| Airport | Naples International Airport (LIRN) |
Arrival
| Time | 2026-04-14 15:33 |
|---|---|
| Airport | Craiova International Airport (LRCV) |
| Time | Latitude | Longitude | Altitude | Speed | Heading |
|---|---|---|---|---|---|
| 2026-04-14 13:26 | 40.87885 | 14.28285 | 297 ft | 0 kts | 187° |
| 2026-04-14 13:51 | 40.87886 | 14.28285 | 297 ft | 0 kts | 187° |
| 2026-04-14 13:55 | 40.87887 | 14.28286 | 296 ft | 2 kts | 187° |
| 2026-04-14 13:56 | 40.87913 | 14.28292 | 298 ft | 4 kts | 200° |
| 2026-04-14 13:56 | 40.87935 | 14.28308 | 298 ft | 4 kts | 226° |
| 2026-04-14 13:56 | 40.87946 | 14.28334 | 295 ft | 2 kts | 276° |
| 2026-04-14 13:56 | 40.87946 | 14.28335 | 295 ft | 0 kts | 276° |
| 2026-04-14 13:58 | 40.87946 | 14.28336 | 295 ft | 0 kts | 276° |
| 2026-04-14 13:59 | 40.87946 | 14.28335 | 295 ft | 0 kts | 276° |
| 2026-04-14 13:59 | 40.87947 | 14.28318 | 296 ft | 3 kts | 276° |
| 2026-04-14 14:00 | 40.87951 | 14.28278 | 293 ft | 5 kts | 277° |
| 2026-04-14 14:00 | 40.87954 | 14.28239 | 294 ft | 3 kts | 277° |
| 2026-04-14 14:00 | 40.87957 | 14.28214 | 299 ft | 4 kts | 277° |
| 2026-04-14 14:00 | 40.87967 | 14.28160 | 317 ft | 8 kts | 298° |
| 2026-04-14 14:01 | 40.88025 | 14.28157 | 299 ft | 13 kts | 44° |
| 2026-04-14 14:01 | 40.88063 | 14.28289 | 293 ft | 18 kts | 94° |
| 2026-04-14 14:01 | 40.88050 | 14.28453 | 287 ft | 17 kts | 97° |
| 2026-04-14 14:01 | 40.88046 | 14.28600 | 290 ft | 16 kts | 70° |
| 2026-04-14 14:02 | 40.88112 | 14.28724 | 285 ft | 16 kts | 53° |
| 2026-04-14 14:02 | 40.88184 | 14.28849 | 280 ft | 18 kts | 52° |
| 2026-04-14 14:02 | 40.88270 | 14.28996 | 274 ft | 22 kts | 52° |
| 2026-04-14 14:02 | 40.88344 | 14.29124 | 271 ft | 18 kts | 53° |
| 2026-04-14 14:03 | 40.88429 | 14.29273 | 263 ft | 22 kts | 52° |
| 2026-04-14 14:03 | 40.88524 | 14.29436 | 257 ft | 24 kts | 52° |
| 2026-04-14 14:03 | 40.88614 | 14.29588 | 251 ft | 20 kts | 52° |
| 2026-04-14 14:03 | 40.88704 | 14.29747 | 246 ft | 23 kts | 53° |
| 2026-04-14 14:04 | 40.88799 | 14.29912 | 242 ft | 23 kts | 53° |
| 2026-04-14 14:04 | 40.88894 | 14.30076 | 241 ft | 23 kts | 52° |
| 2026-04-14 14:04 | 40.88942 | 14.30157 | 234 ft | 3 kts | 51° |
| 2026-04-14 14:04 | 40.88965 | 14.30178 | 233 ft | 5 kts | 18° |
| 2026-04-14 14:05 | 40.88994 | 14.30171 | 234 ft | 0 kts | 341° |
| 2026-04-14 14:05 | 40.89011 | 14.30162 | 234 ft | 3 kts | 334° |
| 2026-04-14 14:05 | 40.89029 | 14.30148 | 236 ft | 3 kts | 329° |
| 2026-04-14 14:06 | 40.89050 | 14.30130 | 240 ft | 6 kts | 325° |
| 2026-04-14 14:06 | 40.89067 | 14.30071 | 239 ft | 8 kts | 259° |
| 2026-04-14 14:06 | 40.88970 | 14.29853 | 247 ft | 61 kts | 238° |
| 2026-04-14 14:06 | 40.88619 | 14.29115 | 265 ft | 126 kts | 238° |
| 2026-04-14 14:07 | 40.88099 | 14.27990 | 637 ft | 144 kts | 238° |
| 2026-04-14 14:07 | 40.87490 | 14.26950 | 1318 ft | 148 kts | 216° |
| 2026-04-14 14:07 | 40.86485 | 14.26571 | 1883 ft | 158 kts | 177° |
| 2026-04-14 14:07 | 40.85340 | 14.26794 | 2157 ft | 179 kts | 172° |
| 2026-04-14 14:08 | 40.84044 | 14.26990 | 2465 ft | 193 kts | 175° |
| 2026-04-14 14:08 | 40.82682 | 14.27142 | 2944 ft | 199 kts | 175° |
| 2026-04-14 14:08 | 40.81320 | 14.27299 | 3630 ft | 194 kts | 174° |
| 2026-04-14 14:08 | 40.79992 | 14.27482 | 4212 ft | 195 kts | 173° |
| 2026-04-14 14:09 | 40.78635 | 14.27690 | 4779 ft | 198 kts | 173° |
| 2026-04-14 14:09 | 40.77262 | 14.27855 | 5334 ft | 198 kts | 175° |
| 2026-04-14 14:09 | 40.75886 | 14.28002 | 5942 ft | 197 kts | 174° |
| 2026-04-14 14:09 | 40.74514 | 14.28165 | 6560 ft | 195 kts | 174° |
| 2026-04-14 14:10 | 40.73170 | 14.28363 | 7086 ft | 196 kts | 167° |
| 2026-04-14 14:10 | 40.72000 | 14.29256 | 7585 ft | 200 kts | 131° |
| 2026-04-14 14:10 | 40.71445 | 14.30942 | 7864 ft | 219 kts | 96° |
| 2026-04-14 14:10 | 40.71662 | 14.33038 | 8126 ft | 234 kts | 81° |
| 2026-04-14 14:11 | 40.71992 | 14.35156 | 8560 ft | 237 kts | 81° |
| 2026-04-14 14:11 | 40.72325 | 14.37277 | 9083 ft | 242 kts | 81° |
| 2026-04-14 14:11 | 40.72664 | 14.39447 | 9798 ft | 243 kts | 82° |
| 2026-04-14 14:11 | 40.73154 | 14.41592 | 10401 ft | 247 kts | 67° |
| 2026-04-14 14:12 | 40.74144 | 14.43476 | 10871 ft | 257 kts | 48° |
| 2026-04-14 14:12 | 40.75658 | 14.44928 | 10981 ft | 284 kts | 29° |
| 2026-04-14 14:12 | 40.77484 | 14.46181 | 11171 ft | 307 kts | 29° |
| 2026-04-14 14:12 | 40.79442 | 14.47543 | 11353 ft | 330 kts | 29° |
| 2026-04-14 14:13 | 40.81536 | 14.49010 | 11485 ft | 352 kts | 30° |
| 2026-04-14 14:13 | 40.83751 | 14.50569 | 11781 ft | 366 kts | 29° |
| 2026-04-14 14:13 | 40.86017 | 14.52163 | 12353 ft | 372 kts | 29° |
| 2026-04-14 14:13 | 40.88311 | 14.53774 | 12991 ft | 375 kts | 29° |
| 2026-04-14 14:14 | 40.90628 | 14.55406 | 13645 ft | 379 kts | 29° |
| 2026-04-14 14:14 | 40.92962 | 14.57056 | 14221 ft | 382 kts | 29° |
| 2026-04-14 14:14 | 40.95319 | 14.58724 | 14799 ft | 386 kts | 29° |
| 2026-04-14 14:14 | 40.97697 | 14.60405 | 15364 ft | 390 kts | 29° |
| 2026-04-14 14:15 | 41.00102 | 14.62106 | 15951 ft | 393 kts | 30° |
| 2026-04-14 14:15 | 41.02489 | 14.63798 | 16512 ft | 397 kts | 30° |
| 2026-04-14 14:15 | 41.04933 | 14.65532 | 17077 ft | 400 kts | 30° |
| 2026-04-14 14:15 | 41.07456 | 14.67126 | 17632 ft | 405 kts | 24° |
| 2026-04-14 14:16 | 41.10062 | 14.68579 | 18191 ft | 408 kts | 24° |
| 2026-04-14 14:16 | 41.12696 | 14.70047 | 18677 ft | 412 kts | 24° |
| 2026-04-14 14:16 | 41.15344 | 14.71528 | 19155 ft | 415 kts | 24° |
| 2026-04-14 14:17 | 41.20715 | 14.74536 | 20136 ft | 422 kts | 24° |
| 2026-04-14 14:17 | 41.23435 | 14.76061 | 20613 ft | 426 kts | 24° |
| 2026-04-14 14:17 | 41.26129 | 14.77601 | 21085 ft | 429 kts | 25° |
| 2026-04-14 14:17 | 41.28823 | 14.79345 | 21547 ft | 431 kts | 32° |
| 2026-04-14 14:18 | 41.31246 | 14.81680 | 21986 ft | 432 kts | 44° |
| 2026-04-14 14:18 | 41.33347 | 14.84539 | 22430 ft | 432 kts | 51° |
| 2026-04-14 14:18 | 41.35351 | 14.87531 | 22861 ft | 435 kts | 50° |
| 2026-04-14 14:18 | 41.37405 | 14.90513 | 23298 ft | 439 kts | 49° |
| 2026-04-14 14:19 | 41.39495 | 14.93497 | 23661 ft | 442 kts | 49° |
| 2026-04-14 14:19 | 41.41602 | 14.96491 | 23979 ft | 445 kts | 49° |
| 2026-04-14 14:19 | 41.43727 | 14.99519 | 24317 ft | 449 kts | 49° |
| 2026-04-14 14:19 | 41.45831 | 15.02533 | 24645 ft | 452 kts | 49° |
| 2026-04-14 14:20 | 41.47974 | 15.05622 | 24997 ft | 454 kts | 49° |
| 2026-04-14 14:20 | 41.50120 | 15.08730 | 25328 ft | 457 kts | 49° |
| 2026-04-14 14:20 | 41.52275 | 15.11864 | 25660 ft | 461 kts | 49° |
| 2026-04-14 14:20 | 41.54445 | 15.15026 | 26005 ft | 463 kts | 49° |
| 2026-04-14 14:21 | 41.56630 | 15.18210 | 26334 ft | 466 kts | 49° |
| 2026-04-14 14:21 | 41.58826 | 15.21410 | 26657 ft | 469 kts | 49° |
| 2026-04-14 14:21 | 41.61036 | 15.24629 | 26992 ft | 471 kts | 49° |
| 2026-04-14 14:21 | 41.63255 | 15.27863 | 27325 ft | 474 kts | 49° |
| 2026-04-14 14:22 | 41.65488 | 15.31120 | 27617 ft | 477 kts | 49° |
| 2026-04-14 14:22 | 41.67704 | 15.34358 | 27890 ft | 480 kts | 49° |
| 2026-04-14 14:22 | 41.69962 | 15.37661 | 28176 ft | 483 kts | 49° |
| 2026-04-14 14:22 | 41.72234 | 15.40989 | 28481 ft | 485 kts | 49° |
| 2026-04-14 14:23 | 41.74516 | 15.44335 | 28783 ft | 488 kts | 49° |
| 2026-04-14 14:23 | 41.76812 | 15.47704 | 29095 ft | 491 kts | 49° |
| 2026-04-14 14:23 | 41.79118 | 15.51097 | 29398 ft | 493 kts | 49° |
| 2026-04-14 14:23 | 41.81432 | 15.54506 | 29721 ft | 495 kts | 49° |
| 2026-04-14 14:24 | 41.83749 | 15.57923 | 30111 ft | 495 kts | 49° |
| 2026-04-14 14:24 | 41.86063 | 15.61338 | 30486 ft | 494 kts | 49° |
| 2026-04-14 14:24 | 41.88369 | 15.64745 | 30863 ft | 492 kts | 49° |
| 2026-04-14 14:24 | 41.90667 | 15.68141 | 31224 ft | 492 kts | 49° |
| 2026-04-14 14:25 | 41.92969 | 15.71544 | 31587 ft | 491 kts | 49° |
| 2026-04-14 14:25 | 41.95256 | 15.74931 | 31989 ft | 489 kts | 49° |
| 2026-04-14 14:25 | 41.97540 | 15.78317 | 32376 ft | 488 kts | 49° |
| 2026-04-14 14:25 | 41.99787 | 15.81652 | 32773 ft | 487 kts | 49° |
| 2026-04-14 14:26 | 42.02051 | 15.85021 | 33155 ft | 485 kts | 49° |
| 2026-04-14 14:26 | 42.04306 | 15.88385 | 33535 ft | 483 kts | 49° |
| 2026-04-14 14:26 | 42.06551 | 15.91734 | 33917 ft | 482 kts | 50° |
| 2026-04-14 14:26 | 42.08797 | 15.95085 | 34232 ft | 481 kts | 49° |
| 2026-04-14 14:27 | 42.11033 | 15.98419 | 34523 ft | 480 kts | 49° |
| 2026-04-14 14:27 | 42.13271 | 16.01760 | 34783 ft | 480 kts | 49° |
| 2026-04-14 14:27 | 42.15503 | 16.05099 | 34918 ft | 480 kts | 49° |
| 2026-04-14 14:27 | 42.17727 | 16.08439 | 34926 ft | 478 kts | 49° |
| 2026-04-14 14:28 | 42.22137 | 16.15060 | 34930 ft | 477 kts | 49° |
| 2026-04-14 14:28 | 42.26570 | 16.21730 | 34936 ft | 477 kts | 49° |
| 2026-04-14 14:29 | 42.30994 | 16.28402 | 34936 ft | 476 kts | 49° |
| 2026-04-14 14:29 | 42.35410 | 16.35076 | 34937 ft | 476 kts | 49° |
| 2026-04-14 14:30 | 42.39794 | 16.41723 | 34937 ft | 477 kts | 49° |
| 2026-04-14 14:30 | 42.44209 | 16.48434 | 34954 ft | 478 kts | 49° |
| 2026-04-14 14:31 | 42.48627 | 16.55168 | 34974 ft | 478 kts | 49° |
| 2026-04-14 14:31 | 42.53039 | 16.61906 | 34980 ft | 478 kts | 49° |
| 2026-04-14 14:32 | 42.57454 | 16.68655 | 34988 ft | 478 kts | 49° |
| 2026-04-14 14:32 | 42.61844 | 16.75381 | 34991 ft | 478 kts | 49° |
| 2026-04-14 14:33 | 42.66148 | 16.82260 | 35000 ft | 478 kts | 56° |
| 2026-04-14 14:33 | 42.69686 | 16.89893 | 35001 ft | 477 kts | 59° |
| 2026-04-14 14:34 | 42.74926 | 17.01337 | 35010 ft | 477 kts | 59° |
| 2026-04-14 14:35 | 42.78422 | 17.09007 | 35015 ft | 477 kts | 58° |
| 2026-04-14 14:35 | 42.81909 | 17.16696 | 35011 ft | 477 kts | 58° |
| 2026-04-14 14:36 | 42.85397 | 17.24400 | 35016 ft | 478 kts | 58° |
| 2026-04-14 14:36 | 42.88865 | 17.32055 | 35020 ft | 478 kts | 58° |
| 2026-04-14 14:37 | 42.92356 | 17.39782 | 35034 ft | 478 kts | 58° |
| 2026-04-14 14:37 | 42.95831 | 17.47513 | 35038 ft | 478 kts | 58° |
| 2026-04-14 14:38 | 42.99300 | 17.55264 | 35040 ft | 478 kts | 58° |
| 2026-04-14 14:38 | 43.02765 | 17.63018 | 35045 ft | 478 kts | 57° |
| 2026-04-14 14:39 | 43.06955 | 17.69931 | 35053 ft | 476 kts | 43° |
| 2026-04-14 14:39 | 43.11675 | 17.76282 | 35050 ft | 475 kts | 43° |
| 2026-04-14 14:40 | 43.16371 | 17.82658 | 35022 ft | 476 kts | 44° |
| 2026-04-14 14:40 | 43.21062 | 17.89049 | 35027 ft | 476 kts | 44° |
| 2026-04-14 14:41 | 43.25719 | 17.95400 | 35030 ft | 475 kts | 44° |
| 2026-04-14 14:41 | 43.30399 | 18.01789 | 35034 ft | 474 kts | 44° |
| 2026-04-14 14:42 | 43.35068 | 18.08170 | 35039 ft | 473 kts | 44° |
| 2026-04-14 14:42 | 43.39727 | 18.14560 | 35050 ft | 473 kts | 44° |
| 2026-04-14 14:43 | 43.44349 | 18.20918 | 35059 ft | 473 kts | 44° |
| 2026-04-14 14:43 | 43.49029 | 18.27369 | 35067 ft | 473 kts | 44° |
| 2026-04-14 14:44 | 43.53643 | 18.33742 | 35073 ft | 473 kts | 44° |
| 2026-04-14 14:44 | 43.58284 | 18.40157 | 35066 ft | 472 kts | 44° |
| 2026-04-14 14:45 | 43.62912 | 18.46581 | 35055 ft | 472 kts | 44° |
| 2026-04-14 14:45 | 43.67531 | 18.53020 | 35059 ft | 472 kts | 44° |
| 2026-04-14 14:46 | 43.72146 | 18.59452 | 35056 ft | 471 kts | 44° |
| 2026-04-14 14:46 | 43.76717 | 18.65828 | 35061 ft | 469 kts | 44° |
| 2026-04-14 14:47 | 43.81296 | 18.72250 | 35056 ft | 468 kts | 44° |
| 2026-04-14 14:47 | 43.85867 | 18.78671 | 35063 ft | 467 kts | 44° |
| 2026-04-14 14:48 | 43.90425 | 18.85077 | 35060 ft | 466 kts | 44° |
| 2026-04-14 14:48 | 43.94942 | 18.91448 | 35058 ft | 466 kts | 44° |
| 2026-04-14 14:49 | 43.99479 | 18.97865 | 35068 ft | 465 kts | 44° |
| 2026-04-14 14:49 | 44.03999 | 19.04281 | 35067 ft | 464 kts | 44° |
| 2026-04-14 14:50 | 44.08509 | 19.10683 | 35067 ft | 463 kts | 44° |
| 2026-04-14 14:50 | 44.12792 | 19.17350 | 35064 ft | 463 kts | 55° |
| 2026-04-14 14:51 | 44.15631 | 19.25302 | 35068 ft | 463 kts | 69° |
| 2026-04-14 14:51 | 44.17871 | 19.33702 | 35067 ft | 462 kts | 69° |
| 2026-04-14 14:52 | 44.20121 | 19.42084 | 35073 ft | 462 kts | 69° |
| 2026-04-14 14:52 | 44.22188 | 19.49806 | 35069 ft | 462 kts | 69° |
| 2026-04-14 14:53 | 44.24421 | 19.58197 | 35063 ft | 461 kts | 69° |
| 2026-04-14 14:53 | 44.26635 | 19.66598 | 35071 ft | 461 kts | 69° |
| 2026-04-14 14:54 | 44.28844 | 19.75001 | 35070 ft | 461 kts | 69° |
| 2026-04-14 14:54 | 44.31051 | 19.83399 | 35072 ft | 461 kts | 69° |
| 2026-04-14 14:55 | 44.33259 | 19.91744 | 35076 ft | 461 kts | 68° |
| 2026-04-14 14:55 | 44.35593 | 20.00086 | 35074 ft | 461 kts | 67° |
| 2026-04-14 14:56 | 44.39143 | 20.12579 | 35072 ft | 461 kts | 68° |
| 2026-04-14 14:56 | 44.41474 | 20.20944 | 35089 ft | 462 kts | 68° |
| 2026-04-14 14:57 | 44.43763 | 20.29265 | 35079 ft | 462 kts | 68° |
| 2026-04-14 14:57 | 44.46074 | 20.37663 | 35077 ft | 463 kts | 68° |
| 2026-04-14 14:58 | 44.48391 | 20.46087 | 35079 ft | 464 kts | 68° |
| 2026-04-14 14:58 | 44.50707 | 20.54532 | 35087 ft | 465 kts | 68° |
| 2026-04-14 14:59 | 44.53007 | 20.62942 | 35094 ft | 466 kts | 68° |
| 2026-04-14 14:59 | 44.55310 | 20.71427 | 35096 ft | 466 kts | 68° |
| 2026-04-14 15:00 | 44.57613 | 20.79932 | 35100 ft | 467 kts | 68° |
| 2026-04-14 15:00 | 44.59911 | 20.88452 | 35101 ft | 467 kts | 68° |
| 2026-04-14 15:01 | 44.62213 | 20.96982 | 35114 ft | 468 kts | 68° |
| 2026-04-14 15:01 | 44.64504 | 21.05499 | 34609 ft | 470 kts | 68° |
| 2026-04-14 15:02 | 44.65649 | 21.09798 | 34150 ft | 468 kts | 68° |
| 2026-04-14 15:02 | 44.66788 | 21.14075 | 33601 ft | 468 kts | 68° |
| 2026-04-14 15:02 | 44.67927 | 21.18350 | 33177 ft | 465 kts | 68° |
| 2026-04-14 15:02 | 44.69063 | 21.22608 | 33087 ft | 466 kts | 68° |
| 2026-04-14 15:03 | 44.71333 | 21.31157 | 33114 ft | 469 kts | 68° |
| 2026-04-14 15:03 | 44.73600 | 21.39753 | 33119 ft | 470 kts | 68° |
| 2026-04-14 15:04 | 44.75852 | 21.48303 | 33120 ft | 469 kts | 68° |
| 2026-04-14 15:04 | 44.77222 | 21.57268 | 33121 ft | 472 kts | 87° |
| 2026-04-14 15:05 | 44.77318 | 21.66505 | 33127 ft | 471 kts | 89° |
| 2026-04-14 15:05 | 44.77391 | 21.75739 | 33139 ft | 471 kts | 89° |
| 2026-04-14 15:06 | 44.77472 | 21.84973 | 33142 ft | 472 kts | 89° |
| 2026-04-14 15:06 | 44.77514 | 21.89535 | 32980 ft | 474 kts | 89° |
| 2026-04-14 15:06 | 44.77554 | 21.94168 | 32441 ft | 473 kts | 89° |
| 2026-04-14 15:07 | 44.77592 | 21.98789 | 31930 ft | 472 kts | 89° |
| 2026-04-14 15:07 | 44.77625 | 22.03412 | 31412 ft | 473 kts | 89° |
| 2026-04-14 15:07 | 44.77656 | 22.08019 | 30928 ft | 469 kts | 88° |
| 2026-04-14 15:07 | 44.77687 | 22.12602 | 30431 ft | 465 kts | 88° |
| 2026-04-14 15:08 | 44.77714 | 22.17124 | 29914 ft | 461 kts | 89° |
| 2026-04-14 15:08 | 44.77737 | 22.21613 | 29341 ft | 456 kts | 89° |
| 2026-04-14 15:08 | 44.77756 | 22.26046 | 28789 ft | 451 kts | 89° |
| 2026-04-14 15:08 | 44.77772 | 22.30440 | 28244 ft | 444 kts | 89° |
| 2026-04-14 15:09 | 44.77786 | 22.34661 | 27702 ft | 435 kts | 89° |
| 2026-04-14 15:09 | 44.77801 | 22.38908 | 27178 ft | 433 kts | 89° |
| 2026-04-14 15:09 | 44.77815 | 22.43125 | 26666 ft | 429 kts | 89° |
| 2026-04-14 15:09 | 44.77827 | 22.47310 | 26158 ft | 426 kts | 89° |
| 2026-04-14 15:10 | 44.77834 | 22.51457 | 25664 ft | 423 kts | 90° |
| 2026-04-14 15:10 | 44.77587 | 22.55570 | 25168 ft | 420 kts | 99° |
| 2026-04-14 15:10 | 44.76867 | 22.59539 | 24687 ft | 417 kts | 110° |
| 2026-04-14 15:10 | 44.75706 | 22.63251 | 24211 ft | 414 kts | 119° |
| 2026-04-14 15:11 | 44.74164 | 22.66598 | 23749 ft | 411 kts | 129° |
| 2026-04-14 15:11 | 44.72289 | 22.69611 | 23210 ft | 409 kts | 134° |
| 2026-04-14 15:11 | 44.70363 | 22.72552 | 22665 ft | 408 kts | 134° |
| 2026-04-14 15:11 | 44.68448 | 22.75481 | 22134 ft | 406 kts | 134° |
| 2026-04-14 15:12 | 44.66541 | 22.78397 | 21609 ft | 404 kts | 134° |
| 2026-04-14 15:12 | 44.64674 | 22.81254 | 21081 ft | 390 kts | 133° |
| 2026-04-14 15:12 | 44.62834 | 22.84070 | 20583 ft | 391 kts | 134° |
| 2026-04-14 15:12 | 44.60998 | 22.86873 | 20091 ft | 389 kts | 134° |
| 2026-04-14 15:13 | 44.59193 | 22.89628 | 19605 ft | 387 kts | 134° |
| 2026-04-14 15:13 | 44.57351 | 22.92433 | 19126 ft | 385 kts | 133° |
| 2026-04-14 15:13 | 44.55736 | 22.95310 | 18649 ft | 374 kts | 123° |
| 2026-04-14 15:13 | 44.54522 | 22.98469 | 18127 ft | 365 kts | 113° |
| 2026-04-14 15:14 | 44.53718 | 23.01804 | 17515 ft | 356 kts | 103° |
| 2026-04-14 15:14 | 44.53330 | 23.05184 | 16894 ft | 349 kts | 96° |
| 2026-04-14 15:14 | 44.53096 | 23.08541 | 16281 ft | 346 kts | 96° |
| 2026-04-14 15:14 | 44.52848 | 23.11923 | 15680 ft | 351 kts | 96° |
| 2026-04-14 15:15 | 44.52590 | 23.15342 | 15093 ft | 355 kts | 97° |
| 2026-04-14 15:15 | 44.52330 | 23.18742 | 14489 ft | 345 kts | 96° |
| 2026-04-14 15:15 | 44.52081 | 23.21990 | 13913 ft | 335 kts | 96° |
| 2026-04-14 15:15 | 44.51836 | 23.25174 | 13282 ft | 324 kts | 96° |
| 2026-04-14 15:16 | 44.51597 | 23.28279 | 12680 ft | 317 kts | 96° |
| 2026-04-14 15:16 | 44.51361 | 23.31343 | 12160 ft | 314 kts | 97° |
| 2026-04-14 15:16 | 44.51132 | 23.34326 | 11662 ft | 303 kts | 97° |
| 2026-04-14 15:16 | 44.50907 | 23.37249 | 11164 ft | 301 kts | 97° |
| 2026-04-14 15:17 | 44.50684 | 23.40143 | 10679 ft | 297 kts | 97° |
| 2026-04-14 15:17 | 44.50463 | 23.42968 | 10206 ft | 294 kts | 97° |
| 2026-04-14 15:17 | 44.50241 | 23.45800 | 9694 ft | 291 kts | 97° |
| 2026-04-14 15:17 | 44.50021 | 23.48607 | 9171 ft | 289 kts | 97° |
| 2026-04-14 15:18 | 44.49803 | 23.51368 | 8657 ft | 283 kts | 97° |
| 2026-04-14 15:18 | 44.49566 | 23.54076 | 8219 ft | 279 kts | 102° |
| 2026-04-14 15:18 | 44.49085 | 23.56702 | 7843 ft | 278 kts | 111° |
| 2026-04-14 15:18 | 44.48322 | 23.59180 | 7473 ft | 276 kts | 120° |
| 2026-04-14 15:19 | 44.47308 | 23.61452 | 7101 ft | 275 kts | 127° |
| 2026-04-14 15:19 | 44.46210 | 23.63639 | 6745 ft | 274 kts | 127° |
| 2026-04-14 15:19 | 44.45137 | 23.65785 | 6345 ft | 263 kts | 127° |
| 2026-04-14 15:19 | 44.44121 | 23.67824 | 6017 ft | 247 kts | 127° |
| 2026-04-14 15:20 | 44.43177 | 23.69719 | 5744 ft | 237 kts | 128° |
| 2026-04-14 15:20 | 44.42243 | 23.71590 | 5466 ft | 234 kts | 127° |
| 2026-04-14 15:20 | 44.41308 | 23.73456 | 5195 ft | 233 kts | 127° |
| 2026-04-14 15:20 | 44.40381 | 23.75305 | 4917 ft | 231 kts | 126° |
| 2026-04-14 15:21 | 44.39465 | 23.77132 | 4635 ft | 228 kts | 126° |
| 2026-04-14 15:21 | 44.38563 | 23.78931 | 4354 ft | 224 kts | 125° |
| 2026-04-14 15:21 | 44.37674 | 23.80709 | 4073 ft | 221 kts | 124° |
| 2026-04-14 15:21 | 44.36799 | 23.82454 | 3790 ft | 216 kts | 123° |
| 2026-04-14 15:22 | 44.35947 | 23.84143 | 3516 ft | 215 kts | 123° |
| 2026-04-14 15:22 | 44.35072 | 23.85882 | 3230 ft | 216 kts | 123° |
| 2026-04-14 15:22 | 44.34227 | 23.87560 | 2981 ft | 211 kts | 123° |
| 2026-04-14 15:22 | 44.33398 | 23.89209 | 2697 ft | 205 kts | 123° |
| 2026-04-14 15:23 | 44.32589 | 23.90815 | 2536 ft | 199 kts | 122° |
| 2026-04-14 15:23 | 44.31862 | 23.92447 | 2503 ft | 197 kts | 114° |
| 2026-04-14 15:23 | 44.31353 | 23.94190 | 2509 ft | 193 kts | 108° |
| 2026-04-14 15:23 | 44.30893 | 23.95953 | 2512 ft | 193 kts | 108° |
| 2026-04-14 15:24 | 44.30429 | 23.97714 | 2511 ft | 193 kts | 109° |
| 2026-04-14 15:24 | 44.29966 | 23.99471 | 2513 ft | 193 kts | 109° |
| 2026-04-14 15:24 | 44.29507 | 24.01215 | 2488 ft | 190 kts | 108° |
| 2026-04-14 15:24 | 44.29051 | 24.02946 | 2491 ft | 190 kts | 108° |
| 2026-04-14 15:25 | 44.28594 | 24.04674 | 2489 ft | 191 kts | 108° |
| 2026-04-14 15:25 | 44.28137 | 24.06406 | 2493 ft | 194 kts | 108° |
| 2026-04-14 15:25 | 44.27671 | 24.08161 | 2490 ft | 193 kts | 109° |
| 2026-04-14 15:25 | 44.27205 | 24.09910 | 2493 ft | 191 kts | 108° |
| 2026-04-14 15:26 | 44.26745 | 24.11640 | 2494 ft | 191 kts | 108° |
| 2026-04-14 15:26 | 44.26285 | 24.13373 | 2495 ft | 190 kts | 108° |
| 2026-04-14 15:26 | 44.25826 | 24.15109 | 2495 ft | 191 kts | 108° |
| 2026-04-14 15:26 | 44.25383 | 24.16863 | 2497 ft | 191 kts | 102° |
| 2026-04-14 15:27 | 44.25333 | 24.18698 | 2495 ft | 191 kts | 81° |
| 2026-04-14 15:27 | 44.25794 | 24.20431 | 2494 ft | 193 kts | 61° |
| 2026-04-14 15:27 | 44.26709 | 24.21826 | 2493 ft | 199 kts | 39° |
| 2026-04-14 15:27 | 44.27948 | 24.22636 | 2496 ft | 203 kts | 17° |
| 2026-04-14 15:28 | 44.29370 | 24.22705 | 2491 ft | 209 kts | 354° |
| 2026-04-14 15:28 | 44.30313 | 24.22276 | 2503 ft | 215 kts | 337° |
| 2026-04-14 15:28 | 44.31745 | 24.20416 | 2528 ft | 210 kts | 303° |
| 2026-04-14 15:28 | 44.32095 | 24.19164 | 2495 ft | 210 kts | 279° |
| 2026-04-14 15:29 | 44.32151 | 24.17143 | 2505 ft | 207 kts | 270° |
| 2026-04-14 15:29 | 44.32131 | 24.15151 | 2502 ft | 204 kts | 269° |
| 2026-04-14 15:29 | 44.32101 | 24.12532 | 2508 ft | 204 kts | 268° |
| 2026-04-14 15:29 | 44.32079 | 24.10560 | 2505 ft | 199 kts | 269° |
| 2026-04-14 15:30 | 44.32057 | 24.08691 | 2523 ft | 189 kts | 269° |
| 2026-04-14 15:30 | 44.32037 | 24.06883 | 2506 ft | 185 kts | 269° |
| 2026-04-14 15:30 | 44.32023 | 24.05700 | 2497 ft | 181 kts | 270° |
| 2026-04-14 15:30 | 44.32003 | 24.03983 | 2521 ft | 175 kts | 269° |
| 2026-04-14 15:31 | 44.31983 | 24.02323 | 2495 ft | 169 kts | 269° |
| 2026-04-14 15:31 | 44.31964 | 24.00694 | 2202 ft | 165 kts | 270° |
| 2026-04-14 15:31 | 44.31944 | 23.99092 | 1949 ft | 166 kts | 270° |
| 2026-04-14 15:31 | 44.31920 | 23.97474 | 1747 ft | 166 kts | 269° |
| 2026-04-14 15:32 | 44.31903 | 23.95887 | 1449 ft | 161 kts | 270° |
| 2026-04-14 15:32 | 44.31881 | 23.94316 | 1191 ft | 162 kts | 268° |
| 2026-04-14 15:32 | 44.31860 | 23.92753 | 1038 ft | 165 kts | 268° |
| 2026-04-14 15:32 | 44.31847 | 23.91173 | 799 ft | 160 kts | 268° |
| 2026-04-14 15:33 | 44.31832 | 23.89637 | 663 ft | 148 kts | 268° |
| 2026-04-14 15:33 | 44.31810 | 23.88367 | 632 ft | 104 kts | 268° |
| 2026-04-14 15:33 | 44.31784 | 23.87863 | 641 ft | 15 kts | 225° |
| 2026-04-14 15:33 | 44.31682 | 23.87839 | 633 ft | 16 kts | 178° |
| 2026-04-14 15:34 | 44.31574 | 23.87839 | 635 ft | 14 kts | 180° |
| 2026-04-14 15:34 | 44.31469 | 23.87840 | 640 ft | 16 kts | 179° |
| 2026-04-14 15:34 | 44.31367 | 23.87824 | 636 ft | 11 kts | 214° |
| 2026-04-14 15:34 | 44.31341 | 23.87831 | 642 ft | 0 kts | 70° |